createdAt,value
2018-05-07T00:00:22.718Z,59.12
2018-05-07T00:01:03.346Z,59.12
2018-05-07T00:01:43.620Z,59.31
2018-05-07T00:02:24.157Z,59.05
2018-05-07T00:03:04.619Z,58.92
2018-05-07T00:03:45.164Z,58.92
2018-05-07T00:04:25.649Z,59.12
2018-05-07T00:05:06.102Z,59.31
2018-05-07T00:05:46.645Z,59.22
2018-05-07T00:06:27.822Z,59.89
2018-05-07T00:07:09.133Z,59.53
2018-05-07T00:07:50.811Z,59.69
2018-05-07T00:08:32.304Z,59.79
2018-05-07T00:09:13.871Z,60.17
2018-05-07T00:09:54.306Z,59.99
2018-05-07T00:10:35.126Z,59.99
2018-05-07T00:11:16.245Z,60.37
2018-05-07T00:11:57.311Z,60.17
2018-05-07T00:12:37.827Z,60.46
2018-05-07T00:13:18.504Z,60.56
2018-05-07T00:14:02.649Z,61.04
2018-05-07T00:14:50.812Z,61.04
2018-05-07T00:15:31.380Z,61.33
2018-05-07T00:16:14.818Z,61.14
2018-05-07T00:16:58.807Z,60.75
2018-05-07T00:17:41.322Z,60.91
2018-05-07T00:18:21.816Z,61.01
2018-05-07T00:19:03.836Z,60.85
2018-05-07T00:19:46.805Z,60.37
2018-05-07T00:20:28.597Z,60.37
2018-05-07T00:21:09.126Z,60.72
2018-05-07T00:21:51.966Z,60.24
2018-05-07T00:22:34.824Z,60.37
2018-05-07T00:23:20.317Z,60.17
2018-05-07T00:24:06.405Z,60.37
2018-05-07T00:24:51.010Z,60.37
2018-05-07T00:25:31.553Z,60.27
2018-05-07T00:26:14.809Z,60.34
2018-05-07T00:26:56.824Z,59.95
2018-05-07T00:27:36.201Z,60.43
2018-05-07T00:28:17.621Z,60.37
2018-05-07T00:28:58.071Z,59.69
2018-05-07T00:29:38.596Z,60.14
2018-05-07T00:30:19.027Z,60.05
2018-05-07T00:30:59.579Z,60.43
2018-05-07T00:31:40.043Z,60.34
2018-05-07T00:32:20.590Z,59.6
2018-05-07T00:33:01.047Z,59.66
2018-05-07T00:33:41.583Z,60.08
2018-05-07T00:34:22.028Z,60.08
2018-05-07T00:35:02.537Z,60.34
2018-05-07T00:35:43.031Z,60.34
2018-05-07T00:36:24.214Z,60.14
2018-05-07T00:37:04.660Z,60.34
2018-05-07T00:37:45.442Z,60.34
2018-05-07T00:38:25.769Z,59.76
2018-05-07T00:39:06.252Z,59.57
2018-05-07T00:39:46.650Z,60.05
2018-05-07T00:40:27.235Z,59.95
2018-05-07T00:41:07.683Z,60.24
2018-05-07T00:41:48.128Z,60.34
2018-05-07T00:42:28.669Z,60.14
2018-05-07T00:43:09.189Z,59.57
2018-05-07T00:43:49.696Z,60.24
2018-05-07T00:44:30.180Z,60.43
2018-05-07T00:45:10.673Z,60.14
2018-05-07T00:45:51.133Z,60.14
2018-05-07T00:46:31.587Z,60.24
2018-05-07T00:47:12.135Z,60.34
2018-05-07T00:47:52.634Z,60.05
2018-05-07T00:48:33.216Z,60.43
2018-05-07T00:49:13.683Z,60.72
2018-05-07T00:49:54.220Z,61.11
2018-05-07T00:50:34.715Z,61.11
2018-05-07T00:51:15.187Z,61.11
2018-05-07T00:51:55.658Z,61.3
2018-05-07T00:52:36.139Z,61.01
2018-05-07T00:53:16.623Z,61.55
2018-05-07T00:53:57.109Z,61.84
2018-05-07T00:54:37.609Z,61.01
2018-05-07T00:55:18.086Z,61.11
2018-05-07T00:55:58.635Z,61.2
2018-05-07T00:56:39.125Z,61.3
2018-05-07T00:57:19.778Z,61.4
2018-05-07T00:58:00.218Z,60.91
2018-05-07T00:58:40.669Z,61.2
2018-05-07T00:59:21.111Z,61.3
2018-05-07T01:00:01.659Z,61.3
2018-05-07T01:00:42.158Z,61.2
2018-05-07T01:01:22.631Z,61.3
2018-05-07T01:02:03.073Z,61.68
2018-05-07T01:02:43.644Z,61.87
2018-05-07T01:03:24.102Z,61.58
2018-05-07T01:04:04.616Z,61.68
2018-05-07T01:04:45.149Z,61.87
2018-05-07T01:05:25.623Z,61.78
2018-05-07T01:06:06.071Z,61.49
2018-05-07T01:06:46.595Z,61.78
2018-05-07T01:07:27.056Z,61.68
2018-05-07T01:08:07.553Z,61.49
2018-05-07T01:08:48.205Z,61.3
2018-05-07T01:09:28.655Z,61.68
2018-05-07T01:10:09.186Z,61.49
2018-05-07T01:10:49.672Z,61.49
2018-05-07T01:11:30.068Z,61.58
2018-05-07T01:12:10.646Z,61.58
2018-05-07T01:12:51.119Z,61.94
2018-05-07T01:13:31.570Z,62.13
2018-05-07T01:14:12.092Z,62.23
2018-05-07T01:14:52.615Z,61.84
2018-05-07T01:15:33.108Z,61.84
2018-05-07T01:16:13.568Z,62.13
2018-05-07T01:16:54.104Z,61.84
2018-05-07T01:17:34.594Z,61.55
2018-05-07T01:18:15.104Z,61.84
2018-05-07T01:18:55.599Z,61.84
2018-05-07T01:19:36.157Z,61.94
2018-05-07T01:20:16.593Z,61.65
2018-05-07T01:20:57.106Z,61.75
2018-05-07T01:21:37.601Z,62.13
2018-05-07T01:22:18.139Z,61.84
2018-05-07T01:22:58.635Z,61.84
2018-05-07T01:23:39.149Z,61.75
2018-05-07T01:24:19.692Z,62.13
2018-05-07T01:25:00.239Z,62.32
2018-05-07T01:25:40.711Z,62.13
2018-05-07T01:26:21.269Z,62.23
2018-05-07T01:27:01.756Z,62.23
2018-05-07T01:27:42.280Z,62.9
2018-05-07T01:28:22.795Z,62.52
2018-05-07T01:29:03.284Z,62.52
2018-05-07T01:29:43.795Z,62.52
2018-05-07T01:30:24.308Z,62.61
2018-05-07T01:31:04.746Z,62.61
2018-05-07T01:31:45.298Z,62.9
2018-05-07T01:32:25.792Z,62.71
2018-05-07T01:33:06.258Z,62.61
2018-05-07T01:33:46.757Z,62.99
2018-05-07T01:34:27.270Z,62.96
2018-05-07T01:35:07.834Z,62.81
2018-05-07T01:35:48.306Z,62.71
2018-05-07T01:36:28.844Z,62.68
2018-05-07T01:37:09.354Z,62.42
2018-05-07T01:37:49.825Z,62.81
2018-05-07T01:38:30.329Z,63.09
2018-05-07T01:39:10.832Z,62.99
2018-05-07T01:39:51.364Z,63.09
2018-05-07T01:40:31.833Z,62.52
2018-05-07T01:41:12.341Z,62.61
2018-05-07T01:41:52.781Z,62.52
2018-05-07T01:42:33.338Z,63.09
2018-05-07T01:43:13.754Z,62.9
2018-05-07T01:43:54.334Z,62.61
2018-05-07T01:44:34.808Z,63.09
2018-05-07T01:45:15.285Z,62.52
2018-05-07T01:45:55.808Z,62.42
2018-05-07T01:46:36.264Z,62.52
2018-05-07T01:47:16.722Z,62.61
2018-05-07T01:47:57.196Z,62.71
2018-05-07T01:48:37.740Z,62.13
2018-05-07T01:49:18.214Z,62.52
2018-05-07T01:49:58.759Z,62.61
2018-05-07T01:50:39.215Z,62.23
2018-05-07T01:51:19.699Z,62.71
2018-05-07T01:52:00.246Z,62.42
2018-05-07T01:52:40.796Z,62.52
2018-05-07T01:53:21.271Z,62.32
2018-05-07T01:54:01.920Z,61.84
2018-05-07T01:54:42.450Z,61.84
2018-05-07T01:55:22.937Z,61.55
2018-05-07T01:56:03.416Z,61.55
2018-05-07T01:56:43.925Z,61.65
2018-05-07T01:57:24.406Z,61.75
2018-05-07T01:58:04.863Z,61.75
2018-05-07T01:58:45.419Z,61.55
2018-05-07T01:59:26.014Z,61.75
2018-05-07T02:00:06.562Z,61.55
2018-05-07T02:00:47.081Z,61.84
2018-05-07T02:01:27.528Z,61.94
2018-05-07T02:02:08.033Z,62.13
2018-05-07T02:02:48.511Z,62.42
2018-05-07T02:03:29.004Z,62.32
2018-05-07T02:04:09.480Z,62.23
2018-05-07T02:04:49.992Z,61.75
2018-05-07T02:05:30.517Z,61.94
2018-05-07T02:06:11.010Z,61.84
2018-05-07T02:06:51.514Z,62.9
2018-05-07T02:07:31.994Z,62.81
2018-05-07T02:08:12.515Z,62.52
2018-05-07T02:08:53.014Z,62.42
2018-05-07T02:09:33.484Z,62.42
2018-05-07T02:10:13.995Z,62.52
2018-05-07T02:10:54.511Z,62.42
2018-05-07T02:11:35.135Z,62.61
2018-05-07T02:12:15.635Z,62.61
2018-05-07T02:12:56.095Z,62.52
2018-05-07T02:13:36.733Z,62.71
2018-05-07T02:14:17.185Z,62.42
2018-05-07T02:14:57.672Z,62.42
2018-05-07T02:15:38.162Z,62.42
2018-05-07T02:16:18.648Z,62.23
2018-05-07T02:16:59.109Z,62.32
2018-05-07T02:17:39.600Z,62.52
2018-05-07T02:18:20.129Z,62.71
2018-05-07T02:19:00.658Z,62.52
2018-05-07T02:19:41.316Z,62.87
2018-05-07T02:20:21.739Z,62.48
2018-05-07T02:21:02.285Z,62.68
2018-05-07T02:21:42.727Z,62.48
2018-05-07T02:22:23.248Z,62.48
2018-05-07T02:23:03.746Z,63.06
2018-05-07T02:23:44.193Z,62.58
2018-05-07T02:24:24.714Z,62.77
2018-05-07T02:25:05.177Z,62.77
2018-05-07T02:25:45.649Z,62.68
2018-05-07T02:26:26.165Z,62.87
2018-05-07T02:27:06.653Z,62.87
2018-05-07T02:27:47.121Z,62.77
2018-05-07T02:28:27.726Z,62.68
2018-05-07T02:29:08.152Z,62.96
2018-05-07T02:29:48.575Z,62.87
2018-05-07T02:30:29.079Z,62.39
2018-05-07T02:31:09.605Z,62.68
2018-05-07T02:31:50.022Z,62.68
2018-05-07T02:32:30.528Z,62.77
2018-05-07T02:33:11.002Z,62.58
2018-05-07T02:33:51.955Z,62.58
2018-05-07T02:34:32.437Z,62.96
2018-05-07T02:35:12.969Z,62.96
2018-05-07T02:35:53.472Z,62.58
2018-05-07T02:36:33.873Z,62.58
2018-05-07T02:37:14.369Z,62.77
2018-05-07T02:37:54.863Z,62.68
2018-05-07T02:38:35.354Z,62.39
2018-05-07T02:39:15.838Z,62.96
2018-05-07T02:39:56.320Z,63.06
2018-05-07T02:40:36.896Z,62.58
2018-05-07T02:41:17.315Z,62.48
2018-05-07T02:41:57.810Z,62.48
2018-05-07T02:42:38.290Z,62.48
2018-05-07T02:43:18.764Z,62.68
2018-05-07T02:43:59.243Z,62.48
2018-05-07T02:44:39.747Z,62.96
2018-05-07T02:45:20.290Z,62.58
2018-05-07T02:46:00.806Z,63.25
2018-05-07T02:46:41.189Z,62.29
2018-05-07T02:47:21.730Z,63.16
2018-05-07T02:48:02.193Z,62.39
2018-05-07T02:48:42.720Z,63.06
2018-05-07T02:49:23.149Z,62.87
2018-05-07T02:50:03.682Z,63.16
2018-05-07T02:50:44.090Z,62.87
2018-05-07T02:51:24.599Z,63.06
2018-05-07T02:52:05.137Z,62.96
2018-05-07T02:52:45.630Z,63.16
2018-05-07T02:53:26.036Z,62.48
2018-05-07T02:54:06.596Z,62.48
2018-05-07T02:54:47.031Z,62.96
2018-05-07T02:55:27.478Z,62.77
2018-05-07T02:56:08.045Z,63.25
2018-05-07T02:56:48.597Z,63.12
2018-05-07T02:57:29.097Z,63.22
2018-05-07T02:58:09.617Z,62.87
2018-05-07T02:58:50.130Z,62.68
2018-05-07T02:59:30.606Z,62.68
2018-05-07T03:00:11.086Z,62.96
2018-05-07T03:00:51.546Z,63.42
2018-05-07T03:01:32.112Z,62.87
2018-05-07T03:02:12.586Z,63.06
2018-05-07T03:02:53.044Z,62.96
2018-05-07T03:03:33.525Z,63.45
2018-05-07T03:04:14.093Z,63.32
2018-05-07T03:04:54.587Z,62.74
2018-05-07T03:05:35.040Z,63.16
2018-05-07T03:06:15.558Z,63.03
2018-05-07T03:06:56.050Z,63.22
2018-05-07T03:07:36.503Z,63.12
2018-05-07T03:08:16.993Z,63.12
2018-05-07T03:08:57.474Z,63.42
2018-05-07T03:09:38.008Z,62.87
2018-05-07T03:10:18.430Z,62.65
2018-05-07T03:10:58.921Z,63.12
2018-05-07T03:11:39.468Z,63.12
2018-05-07T03:12:19.963Z,62.77
2018-05-07T03:13:00.468Z,63.22
2018-05-07T03:13:40.926Z,62.77
2018-05-07T03:14:21.387Z,62.68
2018-05-07T03:15:01.905Z,63.16
2018-05-07T03:15:42.399Z,63.16
2018-05-07T03:16:22.859Z,62.96
2018-05-07T03:17:03.368Z,63.06
2018-05-07T03:17:43.835Z,63.64
2018-05-07T03:18:24.483Z,63.25
2018-05-07T03:19:04.875Z,62.96
2018-05-07T03:19:45.372Z,62.87
2018-05-07T03:20:25.884Z,62.96
2018-05-07T03:21:06.362Z,62.77
2018-05-07T03:21:47.175Z,62.48
2018-05-07T03:22:27.677Z,62.84
2018-05-07T03:23:08.172Z,62.87
2018-05-07T03:23:48.652Z,62.84
2018-05-07T03:24:29.168Z,62.93
2018-05-07T03:25:09.622Z,62.84
2018-05-07T03:25:50.122Z,63.22
2018-05-07T03:26:30.650Z,62.77
2018-05-07T03:27:11.101Z,63.12
2018-05-07T03:27:51.604Z,62.87
2018-05-07T03:28:32.115Z,63.7
2018-05-07T03:29:12.581Z,63.06
2018-05-07T03:29:53.111Z,63.22
2018-05-07T03:30:33.673Z,63.12
2018-05-07T03:31:14.117Z,62.84
2018-05-07T03:31:54.638Z,63.32
2018-05-07T03:32:35.062Z,62.84
2018-05-07T03:33:15.616Z,62.93
2018-05-07T03:33:56.080Z,63.03
2018-05-07T03:34:36.534Z,63.12
2018-05-07T03:35:17.026Z,62.74
2018-05-07T03:35:57.554Z,62.68
2018-05-07T03:36:38.199Z,63.03
2018-05-07T03:37:18.789Z,62.93
2018-05-07T03:37:59.309Z,62.65
2018-05-07T03:38:39.777Z,62.93
2018-05-07T03:39:20.368Z,62.84
2018-05-07T03:40:00.810Z,62.74
2018-05-07T03:40:41.289Z,63.06
2018-05-07T03:41:22.011Z,62.87
2018-05-07T03:42:02.501Z,63.12
2018-05-07T03:42:43.039Z,63.12
2018-05-07T03:43:23.477Z,62.84
2018-05-07T03:44:04.030Z,62.68
2018-05-07T03:44:44.458Z,62.93
2018-05-07T03:45:24.954Z,63.03
2018-05-07T03:46:05.443Z,63.03
2018-05-07T03:46:45.968Z,62.87
2018-05-07T03:47:26.486Z,62.93
2018-05-07T03:48:06.944Z,62.84
2018-05-07T03:48:47.440Z,62.74
2018-05-07T03:49:27.908Z,62.84
2018-05-07T03:50:08.397Z,63.7
2018-05-07T03:50:48.899Z,63.51
2018-05-07T03:51:29.506Z,63.51
2018-05-07T03:52:10.001Z,62.84
2018-05-07T03:52:50.637Z,62.45
2018-05-07T03:53:31.034Z,62.84
2018-05-07T03:54:11.531Z,62.65
2018-05-07T03:54:51.955Z,62.74
2018-05-07T03:55:32.854Z,62.84
2018-05-07T03:56:13.334Z,62.74
2018-05-07T03:56:53.805Z,62.74
2018-05-07T03:57:34.361Z,62.36
2018-05-07T03:58:14.847Z,62.84
2018-05-07T03:58:55.347Z,62.55
2018-05-07T03:59:35.930Z,62.45
2018-05-07T04:00:16.330Z,62.74
2018-05-07T04:00:56.823Z,62.55
2018-05-07T04:01:37.335Z,62.45
2018-05-07T04:02:18.416Z,62.36
2018-05-07T04:02:58.903Z,61.78
2018-05-07T04:03:39.395Z,61.69
2018-05-07T04:04:19.886Z,61.69
2018-05-07T04:05:00.337Z,61.78
2018-05-07T04:05:40.912Z,61.88
2018-05-07T04:06:21.386Z,62.07
2018-05-07T04:07:01.849Z,61.78
2018-05-07T04:07:42.330Z,61.98
2018-05-07T04:08:22.797Z,61.59
2018-05-07T04:09:03.339Z,61.98
2018-05-07T04:09:43.842Z,61.21
2018-05-07T04:10:24.337Z,61.21
2018-05-07T04:11:04.803Z,61.49
2018-05-07T04:11:45.315Z,61.49
2018-05-07T04:12:25.799Z,61.69
2018-05-07T04:13:06.297Z,61.21
2018-05-07T04:13:46.775Z,61.3
2018-05-07T04:14:27.233Z,61.49
2018-05-07T04:15:07.770Z,61.21
2018-05-07T04:15:48.253Z,61.3
2018-05-07T04:16:28.738Z,61.52
2018-05-07T04:17:09.295Z,61.62
2018-05-07T04:17:49.766Z,61.43
2018-05-07T04:18:30.278Z,61.4
2018-05-07T04:19:10.759Z,61.4
2018-05-07T04:19:51.285Z,61.4
2018-05-07T04:20:31.859Z,61.49
2018-05-07T04:21:12.240Z,61.24
2018-05-07T04:21:52.864Z,61.52
2018-05-07T04:22:33.382Z,61.49
2018-05-07T04:23:13.868Z,61.52
2018-05-07T04:23:54.331Z,61.02
2018-05-07T04:24:34.885Z,60.72
2018-05-07T04:25:15.402Z,60.72
2018-05-07T04:25:55.867Z,60.82
2018-05-07T04:26:36.384Z,61.49
2018-05-07T04:27:16.858Z,61.4
2018-05-07T04:27:57.325Z,61.3
2018-05-07T04:28:37.785Z,61.59
2018-05-07T04:29:18.323Z,61.59
2018-05-07T04:29:58.812Z,61.3
2018-05-07T04:30:39.290Z,61.59
2018-05-07T04:31:19.836Z,61.59
2018-05-07T04:32:00.329Z,61.4
2018-05-07T04:32:40.825Z,61.49
2018-05-07T04:33:21.382Z,61.59
2018-05-07T04:34:01.918Z,61.4
2018-05-07T04:34:42.439Z,61.69
2018-05-07T04:35:22.926Z,61.78
2018-05-07T04:36:03.405Z,61.49
2018-05-07T04:36:43.894Z,61.59
2018-05-07T04:37:24.363Z,61.49
2018-05-07T04:38:04.988Z,61.3
2018-05-07T04:38:45.471Z,60.82
2018-05-07T04:39:25.962Z,61.11
2018-05-07T04:40:06.476Z,60.92
2018-05-07T04:40:46.966Z,60.72
2018-05-07T04:41:27.659Z,60.92
2018-05-07T04:42:08.481Z,61.59
2018-05-07T04:42:48.989Z,61.4
2018-05-07T04:43:29.441Z,61.3
2018-05-07T04:44:09.924Z,61.59
2018-05-07T04:44:50.442Z,61.02
2018-05-07T04:45:30.907Z,60.82
2018-05-07T04:46:11.416Z,60.82
2018-05-07T04:46:51.897Z,61.21
2018-05-07T04:47:32.428Z,61.02
2018-05-07T04:48:12.952Z,61.02
2018-05-07T04:48:53.476Z,61.02
2018-05-07T04:49:33.890Z,60.72
2018-05-07T04:50:14.407Z,60.72
2018-05-07T04:50:54.905Z,60.63
2018-05-07T04:51:35.425Z,61.02
2018-05-07T04:52:15.935Z,61.21
2018-05-07T04:52:56.408Z,60.92
2018-05-07T04:53:36.997Z,61.02
2018-05-07T04:54:17.518Z,61.21
2018-05-07T04:54:57.956Z,61.02
2018-05-07T04:55:38.452Z,61.69
2018-05-07T04:56:19.038Z,61.21
2018-05-07T04:56:59.524Z,61.21
2018-05-07T04:57:40.002Z,60.92
2018-05-07T04:58:20.508Z,61.11
2018-05-07T04:59:01.013Z,61.11
2018-05-07T04:59:41.495Z,61.59
2018-05-07T05:00:22.122Z,61.69
2018-05-07T05:01:02.583Z,61.69
2018-05-07T05:01:43.071Z,61.3
2018-05-07T05:02:23.555Z,61.49
2018-05-07T05:03:04.065Z,61.11
2018-05-07T05:03:44.520Z,60.95
2018-05-07T05:04:24.993Z,61.24
2018-05-07T05:05:05.507Z,61.02
2018-05-07T05:05:45.952Z,61.05
2018-05-07T05:06:26.477Z,60.75
2018-05-07T05:07:07.040Z,60.66
2018-05-07T05:07:47.452Z,60.28
2018-05-07T05:08:27.994Z,60.57
2018-05-07T05:09:08.405Z,60.85
2018-05-07T05:09:48.959Z,61.05
2018-05-07T05:10:29.473Z,60.95
2018-05-07T05:11:09.903Z,61.14
2018-05-07T05:11:50.359Z,60.95
2018-05-07T05:12:30.891Z,60.85
2018-05-07T05:13:11.366Z,60.95
2018-05-07T05:13:51.890Z,61.05
2018-05-07T05:14:32.405Z,60.95
2018-05-07T05:15:13.467Z,60.66
2018-05-07T05:15:53.946Z,60.95
2018-05-07T05:16:34.432Z,61.24
2018-05-07T05:17:14.945Z,60.75
2018-05-07T05:17:55.409Z,61.24
2018-05-07T05:18:35.929Z,61.72
2018-05-07T05:19:16.492Z,61.43
2018-05-07T05:19:56.904Z,61.43
2018-05-07T05:20:37.440Z,64.89
2018-05-07T05:21:18.017Z,66.13
2018-05-07T05:21:58.435Z,65.27
2018-05-07T05:22:38.964Z,65.27
2018-05-07T05:23:19.476Z,63.83
2018-05-07T05:23:59.954Z,62.48
2018-05-07T05:24:40.425Z,64.22
2018-05-07T05:25:20.919Z,64.12
2018-05-07T05:26:01.410Z,67.96
2018-05-07T05:26:41.970Z,72.75
2018-05-07T05:27:22.491Z,72.56
2018-05-07T05:28:03.004Z,70.84
2018-05-07T05:28:43.460Z,68.05
2018-05-07T05:29:23.966Z,65.27
2018-05-07T05:30:04.465Z,65.17
2018-05-07T05:30:44.930Z,64.02
2018-05-07T05:31:25.411Z,67.86
2018-05-07T05:32:05.911Z,64.69
2018-05-07T05:32:46.421Z,68.34
2018-05-07T05:33:26.932Z,66.61
2018-05-07T05:34:07.389Z,64.31
2018-05-07T05:34:47.900Z,63.35
2018-05-07T05:35:28.422Z,63.16
2018-05-07T05:36:08.900Z,64.22
2018-05-07T05:36:49.442Z,68.24
2018-05-07T05:37:29.902Z,69.11
2018-05-07T05:38:10.407Z,68.34
2018-05-07T05:38:50.873Z,69.3
2018-05-07T05:39:31.512Z,71.55
2018-05-07T05:40:12.032Z,72.37
2018-05-07T05:40:52.703Z,70.87
2018-05-07T05:41:33.212Z,69.34
2018-05-07T05:42:13.817Z,65.78
2018-05-07T05:42:54.349Z,65.2
2018-05-07T05:43:34.912Z,66.97
2018-05-07T05:44:15.352Z,67.83
2018-05-07T05:44:55.835Z,67.35
2018-05-07T05:45:36.277Z,63.06
2018-05-07T05:46:16.757Z,60.66
2018-05-07T05:46:57.287Z,59.53
2018-05-07T05:47:37.805Z,61.68
2018-05-07T05:48:18.326Z,63.12
2018-05-07T05:48:58.755Z,62.45
2018-05-07T05:49:39.304Z,63.02
2018-05-07T05:50:19.889Z,61.77
2018-05-07T05:51:00.273Z,58.4
2018-05-07T05:51:40.909Z,57.92
2018-05-07T05:52:21.412Z,58.02
2018-05-07T05:53:01.883Z,59.37
2018-05-07T05:53:42.377Z,61.29
2018-05-07T05:54:22.905Z,62.93
2018-05-07T05:55:03.415Z,62.83
2018-05-07T05:55:43.888Z,62.9
2018-05-07T05:56:24.443Z,63.38
2018-05-07T05:57:04.854Z,60.11
2018-05-07T05:57:45.396Z,59.15
2018-05-07T05:58:25.937Z,59.44
2018-05-07T05:59:06.447Z,61.84
2018-05-07T05:59:46.954Z,60.81
2018-05-07T06:00:27.482Z,61.74
2018-05-07T06:01:07.986Z,61.77
2018-05-07T06:01:48.451Z,62.83
2018-05-07T06:02:29.047Z,61
2018-05-07T06:03:09.508Z,61.68
2018-05-07T06:03:50.044Z,64.66
2018-05-07T06:04:30.614Z,60.52
2018-05-07T06:05:11.055Z,59.78
2018-05-07T06:05:51.579Z,59.01
2018-05-07T06:06:32.201Z,60.75
2018-05-07T06:07:12.752Z,58.44
2018-05-07T06:07:53.204Z,63.54
2018-05-07T06:08:33.713Z,59.11
2018-05-07T06:09:14.274Z,57.95
2018-05-07T06:09:54.745Z,57.37
2018-05-07T06:10:35.227Z,56.7
2018-05-07T06:11:15.742Z,66.52
2018-05-07T06:11:56.236Z,69.51
2018-05-07T06:12:36.721Z,65.17
2018-05-07T06:13:17.195Z,62.09
2018-05-07T06:13:57.795Z,62.77
2018-05-07T06:14:38.329Z,63.15
2018-05-07T06:15:18.774Z,70.95
2018-05-07T06:15:59.264Z,69.41
2018-05-07T06:16:39.789Z,64.28
2018-05-07T06:17:20.436Z,64.86
2018-05-07T06:18:00.953Z,65.91
2018-05-07T06:18:41.546Z,71.88
2018-05-07T06:19:21.950Z,66.49
2018-05-07T06:20:02.420Z,62.83
2018-05-07T06:20:42.956Z,61.58
2018-05-07T06:21:23.552Z,68.6
2018-05-07T06:22:03.926Z,69.28
2018-05-07T06:22:44.392Z,67.55
2018-05-07T06:23:24.883Z,66.2
2018-05-07T06:24:05.388Z,64.08
2018-05-07T06:24:45.891Z,63.22
2018-05-07T06:25:26.452Z,68.22
2018-05-07T06:26:06.943Z,66.58
2018-05-07T06:26:47.414Z,65.43
2018-05-07T06:27:27.945Z,62.64
2018-05-07T06:28:08.478Z,60.49
2018-05-07T06:28:48.941Z,59.44
2018-05-07T06:29:29.521Z,63.18
2018-05-07T06:30:09.949Z,62.23
2018-05-07T06:30:50.417Z,63.95
2018-05-07T06:31:30.872Z,63.38
2018-05-07T06:32:11.408Z,64.73
2018-05-07T06:32:51.839Z,61.84
2018-05-07T06:33:32.386Z,59.63
2018-05-07T06:34:13.008Z,62.8
2018-05-07T06:34:53.450Z,62.61
2018-05-07T06:35:33.984Z,66.55
2018-05-07T06:36:14.529Z,65.4
2018-05-07T06:36:55.128Z,63.57
2018-05-07T06:37:35.717Z,65.5
2018-05-07T06:38:16.196Z,64.92
2018-05-07T06:38:56.730Z,64.53
2018-05-07T06:39:37.213Z,61.65
2018-05-07T06:40:17.718Z,60.01
2018-05-07T06:40:58.236Z,61.84
2018-05-07T06:41:38.658Z,60.11
2018-05-07T06:42:19.132Z,58.98
2018-05-07T06:42:59.640Z,62.83
2018-05-07T06:43:40.140Z,63.31
2018-05-07T06:44:20.622Z,66.58
2018-05-07T06:45:01.130Z,64.37
2018-05-07T06:45:41.680Z,62.74
2018-05-07T06:46:22.129Z,62.38
2018-05-07T06:47:02.595Z,59.01
2018-05-07T06:47:43.105Z,57.76
2018-05-07T06:48:23.636Z,63.34
2018-05-07T06:49:04.162Z,59.69
2018-05-07T06:49:44.787Z,62.41
2018-05-07T06:50:25.339Z,63.28
2018-05-07T06:51:05.776Z,59.72
2018-05-07T06:51:46.262Z,60.1
2018-05-07T06:52:26.812Z,62.22
2018-05-07T06:53:07.343Z,58.17
2018-05-07T06:53:47.835Z,60.2
2018-05-07T06:54:28.328Z,57.6
2018-05-07T06:55:08.816Z,56.35
2018-05-07T06:55:49.568Z,62.8
2018-05-07T06:56:29.906Z,65.78
2018-05-07T06:57:10.358Z,58.85
2018-05-07T06:57:50.860Z,63.02
2018-05-07T06:58:31.379Z,66.49
2018-05-07T06:59:11.824Z,61.19
2018-05-07T06:59:52.354Z,66.3
2018-05-07T07:00:32.900Z,66.78
2018-05-07T07:01:13.385Z,68.32
2018-05-07T07:01:53.857Z,63.5
2018-05-07T07:02:34.610Z,63.44
2018-05-07T07:03:14.880Z,58.42
2018-05-07T07:03:55.388Z,60.35
2018-05-07T07:04:35.853Z,63.06
2018-05-07T07:05:16.412Z,63.54
2018-05-07T07:05:56.862Z,65.75
2018-05-07T07:06:37.438Z,64.31
2018-05-07T07:07:17.926Z,67.58
2018-05-07T07:07:58.498Z,64.79
2018-05-07T07:08:39.007Z,57.17
2018-05-07T07:09:19.488Z,54.54
2018-05-07T07:10:00.027Z,65.66
2018-05-07T07:10:40.457Z,62.09
2018-05-07T07:11:21.073Z,61.8
2018-05-07T07:12:01.521Z,70.03
2018-05-07T07:12:42.045Z,67.91
2018-05-07T07:13:22.564Z,64.53
2018-05-07T07:14:03.079Z,65.3
2018-05-07T07:14:43.531Z,63.28
2018-05-07T07:15:24.037Z,57.59
2018-05-07T07:16:04.555Z,56.43
2018-05-07T07:16:45.054Z,57.87
2018-05-07T07:17:25.511Z,57.87
2018-05-07T07:18:06.037Z,59.42
2018-05-07T07:18:46.559Z,61.74
2018-05-07T07:19:27.034Z,57.49
2018-05-07T07:20:07.534Z,56.72
2018-05-07T07:20:48.032Z,58.97
2018-05-07T07:21:28.509Z,55.76
2018-05-07T07:22:08.999Z,53.92
2018-05-07T07:22:49.510Z,61.16
2018-05-07T07:23:30.002Z,62.7
2018-05-07T07:24:10.527Z,55.46
2018-05-07T07:24:50.978Z,54.79
2018-05-07T07:25:31.500Z,55.66
2018-05-07T07:26:11.988Z,57.97
2018-05-07T07:26:52.485Z,56.88
2018-05-07T07:27:33.001Z,55.46
2018-05-07T07:28:13.592Z,56.72
2018-05-07T07:28:53.947Z,55.76
2018-05-07T07:29:34.525Z,57.2
2018-05-07T07:30:15.052Z,60.1
2018-05-07T07:30:55.635Z,61.74
2018-05-07T07:31:36.125Z,57.9
2018-05-07T07:32:16.647Z,58.26
2018-05-07T07:32:57.185Z,59.32
2018-05-07T07:33:37.931Z,60.96
2018-05-07T07:34:18.504Z,59.74
2018-05-07T07:34:59.052Z,56.84
2018-05-07T07:35:39.466Z,55.68
2018-05-07T07:36:20.149Z,64.47
2018-05-07T07:37:00.634Z,65.34
2018-05-07T07:37:41.152Z,57.81
2018-05-07T07:38:21.602Z,58.19
2018-05-07T07:39:02.141Z,55.4
2018-05-07T07:39:42.650Z,58.1
2018-05-07T07:40:23.118Z,58.45
2018-05-07T07:41:03.670Z,62.15
2018-05-07T07:41:44.169Z,57.9
2018-05-07T07:42:24.668Z,62.05
2018-05-07T07:43:05.145Z,66.78
2018-05-07T07:43:45.722Z,61.77
2018-05-07T07:44:26.240Z,66.78
2018-05-07T07:45:06.702Z,66.88
2018-05-07T07:45:47.174Z,66.88
2018-05-07T07:46:27.643Z,68.13
2018-05-07T07:47:08.244Z,69.29
2018-05-07T07:47:48.736Z,62.34
2018-05-07T07:48:29.191Z,59.55
2018-05-07T07:49:09.769Z,62.63
2018-05-07T07:49:50.222Z,64.86
2018-05-07T07:50:30.646Z,61.09
2018-05-07T07:51:11.261Z,56.65
2018-05-07T07:51:51.682Z,64.86
2018-05-07T07:52:32.207Z,65.63
2018-05-07T07:53:12.686Z,58.68
2018-05-07T07:53:53.234Z,61.38
2018-05-07T07:54:33.679Z,63.89
2018-05-07T07:55:14.182Z,68.81
2018-05-07T07:55:54.663Z,71.26
2018-05-07T07:56:35.169Z,67.11
2018-05-07T07:57:15.643Z,57.93
2018-05-07T07:57:56.157Z,57.52
2018-05-07T07:58:36.706Z,69.58
2018-05-07T07:59:17.257Z,63.98
2018-05-07T07:59:57.735Z,70.06
2018-05-07T08:00:38.247Z,64.08
2018-05-07T08:01:18.722Z,56.26
2018-05-07T08:01:59.178Z,54.24
2018-05-07T08:02:39.691Z,53.66
2018-05-07T08:03:20.467Z,55.88
2018-05-07T08:04:01.002Z,65.82
2018-05-07T08:04:41.460Z,68.91
2018-05-07T08:05:21.937Z,65.53
2018-05-07T08:06:02.432Z,68.81
2018-05-07T08:06:42.936Z,68.13
2018-05-07T08:07:23.416Z,61.47
2018-05-07T08:08:03.936Z,55.98
2018-05-07T08:08:44.348Z,54.82
2018-05-07T08:09:24.900Z,59.8
2018-05-07T08:10:05.381Z,62.51
2018-05-07T08:10:45.860Z,64.92
2018-05-07T08:11:26.301Z,60.96
2018-05-07T08:12:06.999Z,58.17
2018-05-07T08:12:47.362Z,65.59
2018-05-07T08:13:27.813Z,67.14
2018-05-07T08:14:08.345Z,62.41
2018-05-07T08:14:49.102Z,68.81
2018-05-07T08:15:29.600Z,69.87
2018-05-07T08:16:10.118Z,69.1
2018-05-07T08:16:50.670Z,69.35
2018-05-07T08:17:31.232Z,68.68
2018-05-07T08:18:11.715Z,71.77
2018-05-07T08:18:52.191Z,63.37
2018-05-07T08:19:32.689Z,62.02
2018-05-07T08:20:13.188Z,64.76
2018-05-07T08:20:53.621Z,63.02
2018-05-07T08:21:34.074Z,60.48
2018-05-07T08:22:14.590Z,63.4
2018-05-07T08:22:55.067Z,63.21
2018-05-07T08:23:35.543Z,56.81
2018-05-07T08:24:16.059Z,56.62
2018-05-07T08:24:56.580Z,55.76
2018-05-07T08:25:37.038Z,55.66
2018-05-07T08:26:17.538Z,56.72
2018-05-07T08:26:58.054Z,57.01
2018-05-07T08:27:38.504Z,60.38
2018-05-07T08:28:19.017Z,56.91
2018-05-07T08:28:59.481Z,61.83
2018-05-07T08:29:40.008Z,61.44
2018-05-07T08:30:20.528Z,56.91
2018-05-07T08:31:01.148Z,55.66
2018-05-07T08:31:41.640Z,56.04
2018-05-07T08:32:22.091Z,54.4
2018-05-07T08:33:02.601Z,58.36
2018-05-07T08:33:43.121Z,62.6
2018-05-07T08:34:23.597Z,61.83
2018-05-07T08:35:04.089Z,61.83
2018-05-07T08:35:44.555Z,62.7
2018-05-07T08:36:25.099Z,58.07
2018-05-07T08:37:05.556Z,61.67
2018-05-07T08:37:46.105Z,63.21
2018-05-07T08:38:26.568Z,63.4
2018-05-07T08:39:07.008Z,63.12
2018-05-07T08:39:47.539Z,58.29
2018-05-07T08:40:28.029Z,59.25
2018-05-07T08:41:08.531Z,64.28
2018-05-07T08:41:49.055Z,63.5
2018-05-07T08:42:29.547Z,66.46
2018-05-07T08:43:10.070Z,62.79
2018-05-07T08:43:50.848Z,61.35